CheckWX is a tool to help pilots better visualize weather data.  It is not intended as a substitute for an official pre-flight weather briefing.

21:02:26 UTC

KILM METAR
Wilmington International Airport
Wilmington, North Carolina, USA
Current

9 mins ago

KILM 232053Z 17008KT 10SM FEW037 FEW050 29/19 A3017 RMK AO2 SLP217 T02940194 56020
Observed
May-23 @ 20:53 UTC
Wind
  • 170° at 8 KTS
Visibility
10 SM
Flight Rules
VFR
Cloud Levels
  • Few at 3,700' AGL
  • Few at 5,000' AGL
Temperature
29°C / 84°F
Dewpoint
19°C / 66°F
Heat Index
30°C / 86°F
Humidity
55%
Altimeter
30.17" Hg
Pressure
1021.72 hPa
Previous

1 hour ago

KILM 231953Z 16008KT 10SM BKN048 29/19 A3019 RMK AO2 SLP223 T02890194
Observed
May-23 @ 19:53 UTC
Wind
  • 160° at 8 KTS
Visibility
10 SM
Flight Rules
VFR
Cloud Levels
  • Broken at 4,800' AGL
Temperature
29°C / 84°F
Dewpoint
19°C / 66°F
Heat Index
30°C / 86°F
Humidity
55%
Altimeter
30.19" Hg
Pressure
1022.32 hPa
Previous

2 hours ago

KILM 231853Z 17009KT 10SM SCT046 BKN060 28/19 A3021 RMK AO2 SLP230 T02830189
Observed
May-23 @ 18:53 UTC
Wind
  • 170° at 9 KTS
Visibility
10 SM
Flight Rules
VFR
Cloud Levels
  • Scattered at 4,600' AGL
  • Broken at 6,000' AGL
Temperature
28°C / 82°F
Dewpoint
19°C / 66°F
Heat Index
29°C / 84°F
Humidity
58%
Altimeter
30.21" Hg
Pressure
1023.02 hPa